createdAt,value
2018-09-05T00:00:10.531Z,30.57
2018-09-05T00:02:39.530Z,32.10
2018-09-05T00:05:08.870Z,35.83
2018-09-05T00:07:37.771Z,34.37
2018-09-05T00:10:06.758Z,34.03
2018-09-05T00:12:35.917Z,34.63
2018-09-05T00:15:04.721Z,34.13
2018-09-05T00:17:33.933Z,32.70
2018-09-05T00:20:03.204Z,33.73
2018-09-05T00:22:32.297Z,33.20
2018-09-05T00:25:01.118Z,32.23
2018-09-05T00:27:59.420Z,32.37
2018-09-05T00:30:31.728Z,33.10
2018-09-05T00:33:01.118Z,33.80
2018-09-05T00:35:30.178Z,31.00
2018-09-05T00:37:58.951Z,33.40
2018-09-05T00:40:28.284Z,32.57
2018-09-05T00:42:57.027Z,32.40
2018-09-05T00:45:26.714Z,32.57
2018-09-05T00:47:55.535Z,32.50
2018-09-05T00:50:24.551Z,31.03
2018-09-05T00:52:53.571Z,29.80
2018-09-05T00:55:22.335Z,30.97
2018-09-05T00:57:51.164Z,32.40
2018-09-05T01:00:21.001Z,32.00
2018-09-05T01:02:50.768Z,31.77
2018-09-05T01:05:20.538Z,31.50
2018-09-05T01:07:50.308Z,32.67
2018-09-05T01:10:20.078Z,31.37
2018-09-05T01:12:49.280Z,32.80
2018-09-05T01:15:18.419Z,31.07
2018-09-05T01:17:47.593Z,31.73
2018-09-05T01:20:16.950Z,33.77
2018-09-05T01:22:45.928Z,31.60
2018-09-05T01:25:15.039Z,32.40
2018-09-05T01:27:44.336Z,31.57
2018-09-05T01:30:14.163Z,30.37
2018-09-05T01:32:42.938Z,31.67
2018-09-05T01:35:11.741Z,30.07
2018-09-05T01:37:41.035Z,30.40
2018-09-05T01:40:16.683Z,30.20
2018-09-05T01:42:45.547Z,30.70
2018-09-05T01:45:14.616Z,29.27
2018-09-05T01:47:43.770Z,29.47
2018-09-05T01:50:12.602Z,29.50
2018-09-05T01:52:41.388Z,32.43
2018-09-05T01:55:10.185Z,29.27
2018-09-05T01:57:38.929Z,27.60
2018-09-05T02:00:11.767Z,30.33
2018-09-05T02:02:40.904Z,31.50
2018-09-05T02:05:09.927Z,30.97
2018-09-05T02:07:38.674Z,27.73
2018-09-05T02:10:07.436Z,27.40
2018-09-05T02:12:36.745Z,28.10
2018-09-05T02:15:05.818Z,27.77
2018-09-05T02:17:35.354Z,27.77
2018-09-05T02:20:04.744Z,27.20
2018-09-05T02:22:34.128Z,30.03
2018-09-05T02:25:02.938Z,29.10
2018-09-05T02:27:32.043Z,26.73
2018-09-05T02:30:01.131Z,26.17
2018-09-05T02:32:29.927Z,27.53
2018-09-05T02:34:58.726Z,26.77
2018-09-05T02:37:28.103Z,26.43
2018-09-05T02:39:56.887Z,26.13
2018-09-05T02:42:25.687Z,25.20
2018-09-05T02:44:55.118Z,26.07
2018-09-05T02:47:24.909Z,27.20
2018-09-05T02:49:55.252Z,26.00
2018-09-05T02:52:24.451Z,26.50
2018-09-05T02:54:53.325Z,26.53
2018-09-05T02:57:22.287Z,27.50
2018-09-05T02:59:51.353Z,24.13
2018-09-05T03:02:20.176Z,25.50
2018-09-05T03:04:49.257Z,26.00
2018-09-05T03:07:18.007Z,25.40
2018-09-05T03:09:47.068Z,26.60
2018-09-05T03:12:21.033Z,24.37
2018-09-05T03:14:51.058Z,25.33
2018-09-05T03:17:20.427Z,24.93
2018-09-05T03:19:49.158Z,26.70
2018-09-05T03:22:17.913Z,23.50
2018-09-05T03:24:46.946Z,23.73
2018-09-05T03:27:16.439Z,24.13
2018-09-05T03:29:45.238Z,23.50
2018-09-05T03:32:15.036Z,26.67
2018-09-05T03:34:43.831Z,25.67
2018-09-05T03:37:12.674Z,24.30
2018-09-05T03:39:42.071Z,24.57
2018-09-05T03:42:10.856Z,23.60
2018-09-05T03:44:39.614Z,25.50
2018-09-05T03:47:09.039Z,24.17
2018-09-05T03:49:38.052Z,23.27
2018-09-05T03:52:07.158Z,24.17
2018-09-05T03:54:35.963Z,25.33
2018-09-05T03:57:04.704Z,24.30
2018-09-05T03:59:33.549Z,23.57
2018-09-05T04:02:02.360Z,23.53
2018-09-05T04:04:31.349Z,24.73
2018-09-05T04:07:00.402Z,24.10
2018-09-05T04:09:29.110Z,23.83
2018-09-05T04:11:57.994Z,22.93
2018-09-05T04:14:27.035Z,25.87
2018-09-05T04:16:55.873Z,25.10
2018-09-05T04:19:24.696Z,23.10
2018-09-05T04:21:53.847Z,24.67
2018-09-05T04:24:22.593Z,22.50
2018-09-05T04:26:51.634Z,23.00
2018-09-05T04:29:20.960Z,25.17
2018-09-05T04:31:49.816Z,24.63
2018-09-05T04:34:18.647Z,22.40
2018-09-05T04:36:47.809Z,23.13
2018-09-05T04:39:16.825Z,25.70
2018-09-05T04:41:45.684Z,25.00
2018-09-05T04:44:14.484Z,24.73
2018-09-05T04:46:47.742Z,24.10
2018-09-05T04:49:17.931Z,23.20
2018-09-05T04:51:46.678Z,24.53
2018-09-05T04:54:15.502Z,24.27
2018-09-05T04:56:44.642Z,26.13
2018-09-05T04:59:14.106Z,25.20
2018-09-05T05:01:43.695Z,23.73
2018-09-05T05:04:12.782Z,24.57
2018-09-05T05:06:42.069Z,23.57
2018-09-05T05:09:12.615Z,23.77
2018-09-05T05:11:42.092Z,24.50
2018-09-05T05:14:11.929Z,24.03
2018-09-05T05:16:40.911Z,24.90
2018-09-05T05:19:09.655Z,23.97
2018-09-05T05:21:38.770Z,24.77
2018-09-05T05:24:08.018Z,22.87
2018-09-05T05:26:37.210Z,27.30
2018-09-05T05:29:05.939Z,25.63
2018-09-05T05:31:35.133Z,24.60
2018-09-05T05:34:04.164Z,25.27
2018-09-05T05:36:32.886Z,27.83
2018-09-05T05:39:02.606Z,27.30
2018-09-05T05:41:34.331Z,28.50
2018-09-05T05:44:03.487Z,28.20
2018-09-05T05:46:32.442Z,27.07
2018-09-05T05:49:01.171Z,26.20
2018-09-05T05:51:29.893Z,26.20
2018-09-05T05:53:58.575Z,26.00
2018-09-05T05:56:27.601Z,26.87
2018-09-05T05:58:56.858Z,26.50
2018-09-05T06:01:25.937Z,23.73
2018-09-05T06:03:54.664Z,26.80
2018-09-05T06:06:23.431Z,26.93
2018-09-05T06:08:52.654Z,26.43
2018-09-05T06:11:21.457Z,26.40
2018-09-05T06:13:50.519Z,28.80
2018-09-05T06:16:19.463Z,29.13
2018-09-05T06:18:48.239Z,26.80
2018-09-05T06:21:17.073Z,25.70
2018-09-05T06:23:46.463Z,27.30
2018-09-05T06:26:15.243Z,25.73
2018-09-05T06:28:44.286Z,26.20
2018-09-05T06:31:13.247Z,25.93
2018-09-05T06:33:41.820Z,26.90
2018-09-05T06:36:10.590Z,26.83
2018-09-05T06:38:39.602Z,27.33
2018-09-05T06:41:09.142Z,27.43
2018-09-05T06:43:37.866Z,26.43
2018-09-05T06:46:06.896Z,26.37
2018-09-05T06:48:37.362Z,25.90
2018-09-05T06:51:07.381Z,25.70
2018-09-05T06:53:38.233Z,25.33
2018-09-05T06:56:06.965Z,23.90
2018-09-05T06:58:37.319Z,25.50
2018-09-05T07:01:06.133Z,24.17
2018-09-05T07:03:35.335Z,23.83
2018-09-05T07:06:04.088Z,24.17
2018-09-05T07:08:33.080Z,22.70
2018-09-05T07:11:01.887Z,22.00
2018-09-05T07:13:31.008Z,23.23
2018-09-05T07:15:59.882Z,22.47
2018-09-05T07:18:29.041Z,20.47
2018-09-05T07:21:05.684Z,21.40
2018-09-05T07:23:27.232Z,22.10
2018-09-05T07:25:55.981Z,21.00
2018-09-05T07:28:24.800Z,21.23
2018-09-05T07:30:53.652Z,19.87
2018-09-05T07:33:22.280Z,20.43
2018-09-05T07:35:51.367Z,21.20
2018-09-05T07:38:20.391Z,21.10
2018-09-05T07:40:49.179Z,21.53
2018-09-05T07:43:18.206Z,19.27
2018-09-05T07:45:47.231Z,19.30
2018-09-05T07:48:16.370Z,20.77
2018-09-05T07:50:45.199Z,19.50
2018-09-05T07:53:13.863Z,20.90
2018-09-05T07:55:42.843Z,20.50
2018-09-05T07:58:11.599Z,18.90
2018-09-05T08:00:40.573Z,18.53
2018-09-05T08:03:09.776Z,18.37
2018-09-05T08:05:38.527Z,19.07
2018-09-05T08:08:07.248Z,17.90
2018-09-05T08:10:36.343Z,19.33
2018-09-05T08:13:05.587Z,16.87
2018-09-05T08:15:34.703Z,19.37
2018-09-05T08:18:03.999Z,18.17
2018-09-05T08:20:32.712Z,17.07
2018-09-05T08:23:01.741Z,18.60
2018-09-05T08:25:30.785Z,18.00
2018-09-05T08:27:59.479Z,17.23
2018-09-05T08:30:28.285Z,17.70
2018-09-05T08:32:57.220Z,18.10
2018-09-05T08:35:26.213Z,15.80
2018-09-05T08:37:55.370Z,16.23
2018-09-05T08:40:24.694Z,14.90
2018-09-05T08:42:53.750Z,15.17
2018-09-05T08:45:22.693Z,14.70
2018-09-05T08:47:51.633Z,15.40
2018-09-05T08:50:20.559Z,12.30
2018-09-05T08:52:49.570Z,13.30
2018-09-05T08:55:18.448Z,13.43
2018-09-05T08:57:47.685Z,12.87
2018-09-05T09:00:16.374Z,12.30
2018-09-05T09:02:45.134Z,12.50
2018-09-05T09:05:14.123Z,12.20
2018-09-05T09:07:43.190Z,11.87
2018-09-05T09:10:12.521Z,11.17
2018-09-05T09:12:41.837Z,11.97
2018-09-05T09:15:10.698Z,10.63
2018-09-05T09:17:39.424Z,10.43
2018-09-05T09:20:08.254Z,8.90
2018-09-05T09:22:37.634Z,9.40
2018-09-05T09:25:06.354Z,10.00
2018-09-05T09:27:35.177Z,9.00
2018-09-05T09:30:04.449Z,9.60
2018-09-05T09:32:33.468Z,8.40
2018-09-05T09:35:02.829Z,7.50
2018-09-05T09:37:31.818Z,7.60
2018-09-05T09:40:00.568Z,7.77
2018-09-05T09:42:29.297Z,7.93
2018-09-05T09:44:58.080Z,6.83
2018-09-05T09:47:27.569Z,6.90
2018-09-05T09:49:57.129Z,6.00
2018-09-05T09:52:25.840Z,6.37
2018-09-05T09:54:54.572Z,6.43
2018-09-05T09:57:23.349Z,6.03
2018-09-05T09:59:52.326Z,7.17
2018-09-05T10:02:26.323Z,5.60
2018-09-05T10:05:00.540Z,5.40
2018-09-05T10:07:34.712Z,6.27
2018-09-05T10:10:08.712Z,6.27
2018-09-05T10:12:47.336Z,5.53
2018-09-05T10:15:22.333Z,5.57
2018-09-05T10:17:56.186Z,6.50
2018-09-05T10:20:24.913Z,6.80
2018-09-05T10:22:54.040Z,6.13
2018-09-05T10:25:22.719Z,5.43
2018-09-05T10:27:51.791Z,5.80
2018-09-05T10:30:20.536Z,5.57
2018-09-05T10:32:49.577Z,6.30
2018-09-05T10:35:19.235Z,6.03
2018-09-05T10:37:48.421Z,6.43
2018-09-05T10:40:17.444Z,5.57
2018-09-05T10:42:46.937Z,5.97
2018-09-05T10:45:15.663Z,6.23
2018-09-05T10:47:44.619Z,4.80
2018-09-05T10:50:13.699Z,6.03
2018-09-05T10:52:42.431Z,4.60
2018-09-05T10:55:11.888Z,4.17
2018-09-05T10:57:40.631Z,4.20
2018-09-05T11:00:09.861Z,4.70
2018-09-05T11:02:38.638Z,4.93
2018-09-05T11:05:07.435Z,4.60
2018-09-05T11:07:36.203Z,5.23
2018-09-05T11:10:04.935Z,4.30
2018-09-05T11:12:34.024Z,5.60
2018-09-05T11:15:06.502Z,5.43
2018-09-05T11:17:35.673Z,5.13
2018-09-05T11:20:04.866Z,4.70
2018-09-05T11:22:33.825Z,6.33
2018-09-05T11:25:02.821Z,6.03
2018-09-05T11:27:31.694Z,6.10
2018-09-05T11:30:00.721Z,5.27
2018-09-05T11:32:29.490Z,4.67
2018-09-05T11:34:59.368Z,4.83
2018-09-05T11:37:28.726Z,4.10
2018-09-05T11:39:57.689Z,4.67
2018-09-05T11:42:26.405Z,5.07
2018-09-05T11:44:55.320Z,4.80
2018-09-05T11:47:24.062Z,4.90
2018-09-05T11:49:52.805Z,4.67
2018-09-05T11:52:22.442Z,5.40
2018-09-05T11:54:51.552Z,4.90
2018-09-05T11:57:20.624Z,4.57
2018-09-05T11:59:49.407Z,5.50
2018-09-05T12:02:18.828Z,5.40
2018-09-05T12:04:48.167Z,5.90
2018-09-05T12:07:16.998Z,5.60
2018-09-05T12:09:45.735Z,4.90
2018-09-05T12:12:14.623Z,5.20
2018-09-05T12:14:43.605Z,5.37
2018-09-05T12:17:13.041Z,5.57
2018-09-05T12:19:42.083Z,5.40
2018-09-05T12:22:10.845Z,4.67
2018-09-05T12:24:40.049Z,5.60
2018-09-05T12:27:09.336Z,6.13
2018-09-05T12:29:38.238Z,5.70
2018-09-05T12:32:07.330Z,5.53
2018-09-05T12:34:36.778Z,6.30
2018-09-05T12:37:05.781Z,5.40
2018-09-05T12:39:34.868Z,6.17
2018-09-05T12:42:03.808Z,6.37
2018-09-05T12:44:33.127Z,5.00
2018-09-05T12:47:02.109Z,5.43
2018-09-05T12:49:30.904Z,4.70
2018-09-05T12:51:59.614Z,3.93
2018-09-05T12:54:28.667Z,4.87
2018-09-05T12:56:57.730Z,5.27
2018-09-05T12:59:26.891Z,4.97
2018-09-05T13:01:56.050Z,4.87
2018-09-05T13:04:25.147Z,4.50
2018-09-05T13:06:54.496Z,4.90
2018-09-05T13:09:23.543Z,5.30
2018-09-05T13:11:52.594Z,5.10
2018-09-05T13:14:21.907Z,5.10
2018-09-05T13:16:52.182Z,4.53
2018-09-05T13:19:21.352Z,4.93
2018-09-05T13:21:50.544Z,4.60
2018-09-05T13:24:20.301Z,4.77
2018-09-05T13:26:49.337Z,5.57
2018-09-05T13:29:18.353Z,5.13
2018-09-05T13:31:47.321Z,5.13
2018-09-05T13:34:16.368Z,5.50
2018-09-05T13:36:45.493Z,4.97
2018-09-05T13:39:14.481Z,5.70
2018-09-05T13:41:43.458Z,4.70
2018-09-05T13:44:12.155Z,4.70
2018-09-05T13:46:41.208Z,4.50
2018-09-05T13:49:09.904Z,4.43
2018-09-05T13:51:39.024Z,4.73
2018-09-05T13:54:08.505Z,4.30
2018-09-05T13:56:37.640Z,4.10
2018-09-05T13:59:06.931Z,4.60
2018-09-05T14:01:36.011Z,3.70
2018-09-05T14:04:04.760Z,4.53
2018-09-05T14:06:33.812Z,4.87
2018-09-05T14:09:02.952Z,4.17
2018-09-05T14:11:31.680Z,4.47
2018-09-05T14:14:01.003Z,4.23
2018-09-05T14:16:29.722Z,3.97
2018-09-05T14:18:58.465Z,3.90
2018-09-05T14:21:27.417Z,3.90
2018-09-05T14:23:56.999Z,3.50
2018-09-05T14:26:25.783Z,4.10
2018-09-05T14:28:54.585Z,4.27
2018-09-05T14:31:23.824Z,4.60
2018-09-05T14:33:52.638Z,4.87
2018-09-05T14:36:21.392Z,4.27
2018-09-05T14:38:50.084Z,4.33
2018-09-05T14:41:19.032Z,4.33
2018-09-05T14:43:47.795Z,4.73
2018-09-05T14:46:17.080Z,4.70
2018-09-05T14:48:45.772Z,4.60
2018-09-05T14:51:14.736Z,4.13
2018-09-05T14:53:43.469Z,3.67
2018-09-05T14:56:12.160Z,5.00
2018-09-05T14:58:40.843Z,4.60
2018-09-05T15:01:09.947Z,4.47
2018-09-05T15:03:38.728Z,4.10
2018-09-05T15:06:07.954Z,4.50
2018-09-05T15:08:36.984Z,4.23
2018-09-05T15:11:05.990Z,4.27
2018-09-05T15:13:34.739Z,5.00
2018-09-05T15:16:03.430Z,4.23
2018-09-05T15:18:32.408Z,4.60
2018-09-05T15:21:01.439Z,5.17
2018-09-05T15:23:30.180Z,4.90
2018-09-05T15:25:59.014Z,4.33
2018-09-05T15:28:28.212Z,5.03
2018-09-05T15:30:56.931Z,4.70
2018-09-05T15:33:25.995Z,4.00
2018-09-05T15:35:55.283Z,4.37
2018-09-05T15:38:24.304Z,3.90
2018-09-05T15:40:53.069Z,3.67
2018-09-05T15:43:22.357Z,5.07
2018-09-05T15:45:51.619Z,4.97
2018-09-05T15:48:20.976Z,4.50
2018-09-05T15:50:49.654Z,4.80
2018-09-05T15:53:18.723Z,4.47
2018-09-05T15:55:48.415Z,4.60
2018-09-05T15:58:17.136Z,4.40
2018-09-05T16:00:46.180Z,3.93
2018-09-05T16:03:15.090Z,4.47
2018-09-05T16:05:44.224Z,3.93
2018-09-05T16:08:13.733Z,3.93
2018-09-05T16:10:42.490Z,3.80
2018-09-05T16:13:11.590Z,4.20
2018-09-05T16:15:40.833Z,4.20
2018-09-05T16:18:09.990Z,4.47
2018-09-05T16:20:38.730Z,3.80
2018-09-05T16:23:08.337Z,4.17
2018-09-05T16:25:37.646Z,5.07
2018-09-05T16:28:06.393Z,4.33
2018-09-05T16:30:35.149Z,5.40
2018-09-05T16:33:04.929Z,4.50
2018-09-05T16:35:33.670Z,6.80
2018-09-05T16:38:02.668Z,5.10
2018-09-05T16:40:31.414Z,5.23
2018-09-05T16:43:00.421Z,4.63
2018-09-05T16:45:29.415Z,4.20
2018-09-05T16:47:58.701Z,4.20
2018-09-05T16:50:27.411Z,3.53
2018-09-05T16:52:56.198Z,4.43
2018-09-05T16:55:24.934Z,4.47
2018-09-05T16:57:54.177Z,3.90
2018-09-05T17:00:22.850Z,4.90
2018-09-05T17:02:51.591Z,3.90
2018-09-05T17:05:20.603Z,3.83
2018-09-05T17:07:49.324Z,3.30
2018-09-05T17:10:18.681Z,4.63
2018-09-05T17:12:47.782Z,4.43
2018-09-05T17:15:16.838Z,4.27
2018-09-05T17:17:45.901Z,3.90
2018-09-05T17:20:14.855Z,4.13
2018-09-05T17:22:43.945Z,3.80
2018-09-05T17:25:15.788Z,4.10
2018-09-05T17:27:44.814Z,4.10
2018-09-05T17:30:13.765Z,3.53
2018-09-05T17:32:42.546Z,4.63
2018-09-05T17:35:11.724Z,4.83
2018-09-05T17:37:40.715Z,4.80
2018-09-05T17:40:09.499Z,4.67
2018-09-05T17:42:38.198Z,4.30
2018-09-05T17:45:07.202Z,4.57
2018-09-05T17:47:35.895Z,4.30
2018-09-05T17:50:04.591Z,4.40
2018-09-05T17:52:33.706Z,5.03
2018-09-05T17:55:02.407Z,4.70
2018-09-05T17:57:31.140Z,5.17
2018-09-05T18:00:00.676Z,4.43
2018-09-05T18:02:29.359Z,4.90
2018-09-05T18:04:58.443Z,5.73
2018-09-05T18:07:27.474Z,4.60
2018-09-05T18:09:56.268Z,5.63
2018-09-05T18:12:24.984Z,4.60
2018-09-05T18:14:53.850Z,5.90
2018-09-05T18:17:22.559Z,5.53
2018-09-05T18:19:51.776Z,5.27
2018-09-05T18:22:20.746Z,5.47
2018-09-05T18:24:49.786Z,5.83
2018-09-05T18:27:18.792Z,5.70
2018-09-05T18:29:47.808Z,5.20
2018-09-05T18:32:17.117Z,5.63
2018-09-05T18:34:46.098Z,5.57
2018-09-05T18:37:14.819Z,5.40
2018-09-05T18:39:43.594Z,4.80
2018-09-05T18:42:12.326Z,5.47
2018-09-05T18:44:41.836Z,5.77
2018-09-05T18:47:10.588Z,5.57
2018-09-05T18:49:39.283Z,5.20
2018-09-05T18:52:07.999Z,4.40
2018-09-05T18:54:37.536Z,5.90
2018-09-05T18:57:08.452Z,4.87
2018-09-05T18:59:37.532Z,5.67
2018-09-05T19:02:06.548Z,5.73
2018-09-05T19:04:35.554Z,5.30
2018-09-05T19:07:04.281Z,5.60
2018-09-05T19:09:33.088Z,4.87
2018-09-05T19:12:02.270Z,5.57
2018-09-05T19:14:30.974Z,5.50
2018-09-05T19:16:59.680Z,5.03
2018-09-05T19:19:28.450Z,4.80
2018-09-05T19:21:57.170Z,5.27
2018-09-05T19:24:26.230Z,4.70
2018-09-05T19:26:55.205Z,5.70
2018-09-05T19:29:23.937Z,5.73
2018-09-05T19:31:52.744Z,6.10
2018-09-05T19:34:22.141Z,5.43
2018-09-05T19:36:50.900Z,4.40
2018-09-05T19:39:20.143Z,5.70
2018-09-05T19:41:48.967Z,5.10
2018-09-05T19:44:18.022Z,6.20
2018-09-05T19:46:47.107Z,5.10
2018-09-05T19:49:16.231Z,5.80
2018-09-05T19:51:44.874Z,5.40
2018-09-05T19:54:13.633Z,5.93
2018-09-05T19:56:42.347Z,6.17
2018-09-05T19:59:11.091Z,6.47
2018-09-05T20:01:40.089Z,5.97
2018-09-05T20:04:09.052Z,6.03
2018-09-05T20:06:38.092Z,5.33
2018-09-05T20:09:07.756Z,6.07
2018-09-05T20:11:36.627Z,5.27
2018-09-05T20:14:05.649Z,6.07
2018-09-05T20:16:34.651Z,5.57
2018-09-05T20:19:03.896Z,5.80
2018-09-05T20:21:33.754Z,6.30
2018-09-05T20:24:02.954Z,5.43
2018-09-05T20:26:31.728Z,6.10
2018-09-05T20:29:00.514Z,5.87
2018-09-05T20:31:29.341Z,6.73
2018-09-05T20:33:58.802Z,5.90
2018-09-05T20:36:28.539Z,5.50
2018-09-05T20:38:57.270Z,6.63
2018-09-05T20:41:26.367Z,6.90
2018-09-05T20:43:55.477Z,5.83
2018-09-05T20:46:24.434Z,6.70
2018-09-05T20:48:53.219Z,7.07
2018-09-05T20:51:22.777Z,8.07
2018-09-05T20:53:51.575Z,6.90
2018-09-05T20:56:20.321Z,7.27
2018-09-05T20:58:49.560Z,6.70
2018-09-05T21:01:18.659Z,6.50
2018-09-05T21:03:47.916Z,6.83
2018-09-05T21:06:17.190Z,7.60
2018-09-05T21:08:52.498Z,6.40
2018-09-05T21:11:21.567Z,6.93
2018-09-05T21:13:50.451Z,6.70
2018-09-05T21:16:19.808Z,7.73
2018-09-05T21:18:49.133Z,7.20
2018-09-05T21:21:17.940Z,7.47
2018-09-05T21:23:46.680Z,7.03
2018-09-05T21:26:15.750Z,7.50
2018-09-05T21:28:44.514Z,6.90
2018-09-05T21:31:13.928Z,7.73
2018-09-05T21:33:42.718Z,8.10
2018-09-05T21:36:11.709Z,7.20
2018-09-05T21:38:40.457Z,7.90
2018-09-05T21:41:09.247Z,8.40
2018-09-05T21:43:38.048Z,7.73
2018-09-05T21:46:07.458Z,8.10
2018-09-05T21:48:36.202Z,8.07
2018-09-05T21:51:04.994Z,8.83
2018-09-05T21:53:33.972Z,8.83
2018-09-05T21:56:03.257Z,8.47
2018-09-05T21:58:35.015Z,7.67
2018-09-05T22:01:04.344Z,8.00
2018-09-05T22:03:33.128Z,7.97
2018-09-05T22:06:08.124Z,9.10
2018-09-05T22:08:37.260Z,8.47
2018-09-05T22:11:11.234Z,9.47
2018-09-05T22:13:40.019Z,8.50
2018-09-05T22:16:09.063Z,7.40
2018-09-05T22:18:38.768Z,8.90
2018-09-05T22:21:07.672Z,8.80
2018-09-05T22:23:36.684Z,7.70
2018-09-05T22:26:05.486Z,8.20
2018-09-05T22:28:34.891Z,8.93
2018-09-05T22:31:03.906Z,7.70
2018-09-05T22:33:33.491Z,7.90
2018-09-05T22:36:02.758Z,8.47
2018-09-05T22:38:31.547Z,8.80
2018-09-05T22:41:00.289Z,9.90
2018-09-05T22:43:40.463Z,9.47
2018-09-05T22:46:20.845Z,8.30
2018-09-05T22:49:01.155Z,8.47
2018-09-05T22:52:13.347Z,8.27
2018-09-05T22:56:59.660Z,9.40
2018-09-05T23:00:22.151Z,8.97
2018-09-05T23:03:59.311Z,9.90
2018-09-05T23:08:40.829Z,8.77
2018-09-05T23:11:56.183Z,9.30
2018-09-05T23:14:36.743Z,9.17
2018-09-05T23:17:16.594Z,11.10
2018-09-05T23:20:17.156Z,10.20
2018-09-05T23:22:57.338Z,10.80
2018-09-05T23:25:26.157Z,10.07
2018-09-05T23:27:55.289Z,11.20
2018-09-05T23:30:24.048Z,10.57
2018-09-05T23:32:52.857Z,11.60
2018-09-05T23:35:21.824Z,12.03
2018-09-05T23:37:50.626Z,12.07
2018-09-05T23:40:19.365Z,12.27
2018-09-05T23:42:48.118Z,10.97
2018-09-05T23:45:16.884Z,11.33
2018-09-05T23:47:45.613Z,11.70
2018-09-05T23:50:14.389Z,10.93
2018-09-05T23:52:43.445Z,11.33
2018-09-05T23:55:13.033Z,11.50
2018-09-05T23:57:42.753Z,12.10
